CheckWX is a tool to help pilots better visualize weather data.  It is not intended as a substitute for an official pre-flight weather briefing.

01:19:50 UTC

CYQA METAR
Muskoka Airport
Muskoka, Canada
Current

1 hour ago

CYQA 200002Z AUTO 26006KT 230V290 9SM SCT019 27/23 A2979 RMK SLP084 DENSITY ALT 2600FT
Observed
Jul-20 @ 00:02 UTC
Wind
  • 260° at 6 KTS
Visibility
9 SM
Flight Rules
VFR
Cloud Levels
  • Scattered at 1,900' AGL
Temperature
27°C / 81°F
Dewpoint
23°C / 73°F
Heat Index
30°C / 86°F
Humidity
79%
Altimeter
29.79" Hg
Pressure
1008.82 hPa
Previous

2 hours ago

CYQA 192300Z AUTO 26006KT 230V300 9SM BKN022 BKN027 27/22 A2979 RMK SLP084 DENSITY ALT 2600FT
Observed
Jul-19 @ 23:00 UTC
Wind
  • 260° at 6 KTS
Visibility
9 SM
Flight Rules
MVFR
Cloud Levels
  • Broken at 2,200' AGL
  • Broken at 2,700' AGL
Temperature
27°C / 81°F
Dewpoint
22°C / 72°F
Heat Index
29°C / 85°F
Humidity
74%
Altimeter
29.79" Hg
Pressure
1008.82 hPa
Previous

3 hours ago

CYQA 192200Z AUTO 25010G17KT 230V300 9SM FEW032 BKN065 28/22 A2979 RMK SLP086 DENSITY ALT 2700FT
Observed
Jul-19 @ 22:00 UTC
Wind
  • 250° at 10 KTS
  • Gusting to 17 KTS
Visibility
9 SM
Flight Rules
VFR
Cloud Levels
  • Few at 3,200' AGL
  • Broken at 6,500' AGL
Temperature
28°C / 82°F
Dewpoint
22°C / 72°F
Heat Index
30°C / 86°F
Humidity
70%
Altimeter
29.79" Hg
Pressure
1008.82 hPa